sensor_id;sensor_type;location;lat;lon;timestamp;P1;durP1;ratioP1;P2;durP2;ratioP2
24713;SDS011;12820;51.580;5.010;2022-09-03T00:02:41;7.80;;;4.10;;
24713;SDS011;12820;51.580;5.010;2022-09-03T00:08:13;8.23;;;4.10;;
24713;SDS011;12820;51.580;5.010;2022-09-03T00:18:54;9.73;;;4.13;;
24713;SDS011;12820;51.580;5.010;2022-09-03T00:23:59;16.60;;;4.78;;
24713;SDS011;12820;51.580;5.010;2022-09-03T00:29:12;10.85;;;3.90;;
24713;SDS011;12820;51.580;5.010;2022-09-03T00:34:35;7.95;;;3.30;;
24713;SDS011;12820;51.580;5.010;2022-09-03T00:39:42;9.20;;;3.05;;
24713;SDS011;12820;51.580;5.010;2022-09-03T00:44:51;7.85;;;3.08;;
24713;SDS011;12820;51.580;5.010;2022-09-03T00:50:03;8.07;;;3.30;;
24713;SDS011;12820;51.580;5.010;2022-09-03T01:00:40;7.80;;;2.90;;
24713;SDS011;12820;51.580;5.010;2022-09-03T01:27:35;4.50;;;2.30;;
24713;SDS011;12820;51.580;5.010;2022-09-03T01:38:32;6.13;;;2.97;;
24713;SDS011;12820;51.580;5.010;2022-09-03T01:44:06;5.10;;;2.53;;
24713;SDS011;12820;51.580;5.010;2022-09-03T01:55:46;8.25;;;3.00;;
24713;SDS011;12820;51.580;5.010;2022-09-03T02:01:00;7.05;;;2.58;;
24713;SDS011;12820;51.580;5.010;2022-09-03T02:06:06;5.63;;;2.60;;
24713;SDS011;12820;51.580;5.010;2022-09-03T02:11:09;6.10;;;2.92;;
24713;SDS011;12820;51.580;5.010;2022-09-03T02:16:13;7.53;;;3.10;;
24713;SDS011;12820;51.580;5.010;2022-09-03T02:21:27;7.82;;;3.30;;
24713;SDS011;12820;51.580;5.010;2022-09-03T02:26:35;8.98;;;2.90;;
24713;SDS011;12820;51.580;5.010;2022-09-03T02:31:38;7.13;;;3.50;;
24713;SDS011;12820;51.580;5.010;2022-09-03T02:36:41;9.05;;;3.00;;
24713;SDS011;12820;51.580;5.010;2022-09-03T02:41:49;8.82;;;3.30;;
24713;SDS011;12820;51.580;5.010;2022-09-03T02:52:05;6.35;;;3.20;;
24713;SDS011;12820;51.580;5.010;2022-09-03T02:57:13;5.90;;;3.10;;
24713;SDS011;12820;51.580;5.010;2022-09-03T03:02:23;8.40;;;3.40;;
24713;SDS011;12820;51.580;5.010;2022-09-03T03:07:25;8.52;;;3.58;;
24713;SDS011;12820;51.580;5.010;2022-09-03T03:12:28;8.82;;;3.40;;
24713;SDS011;12820;51.580;5.010;2022-09-03T03:17:31;13.00;;;3.83;;
24713;SDS011;12820;51.580;5.010;2022-09-03T03:22:33;9.18;;;4.00;;
24713;SDS011;12820;51.580;5.010;2022-09-03T03:27:36;8.90;;;3.60;;
24713;SDS011;12820;51.580;5.010;2022-09-03T03:32:40;6.60;;;3.47;;
24713;SDS011;12820;51.580;5.010;2022-09-03T03:37:42;11.48;;;4.50;;
24713;SDS011;12820;51.580;5.010;2022-09-03T03:42:44;9.90;;;3.95;;
24713;SDS011;12820;51.580;5.010;2022-09-03T03:47:46;7.57;;;4.00;;
24713;SDS011;12820;51.580;5.010;2022-09-03T03:52:48;9.15;;;4.47;;
24713;SDS011;12820;51.580;5.010;2022-09-03T03:57:50;10.27;;;4.32;;
24713;SDS011;12820;51.580;5.010;2022-09-03T04:02:52;11.00;;;5.05;;
24713;SDS011;12820;51.580;5.010;2022-09-03T04:07:55;9.70;;;4.72;;
24713;SDS011;12820;51.580;5.010;2022-09-03T04:12:57;10.55;;;4.72;;
24713;SDS011;12820;51.580;5.010;2022-09-03T04:17:59;8.80;;;4.53;;
24713;SDS011;12820;51.580;5.010;2022-09-03T04:23:01;12.27;;;4.45;;
24713;SDS011;12820;51.580;5.010;2022-09-03T04:28:03;15.88;;;4.20;;
24713;SDS011;12820;51.580;5.010;2022-09-03T04:33:06;8.52;;;3.97;;
24713;SDS011;12820;51.580;5.010;2022-09-03T04:38:16;10.55;;;4.20;;
24713;SDS011;12820;51.580;5.010;2022-09-03T04:43:19;7.65;;;3.88;;
24713;SDS011;12820;51.580;5.010;2022-09-03T04:48:21;8.55;;;3.90;;
24713;SDS011;12820;51.580;5.010;2022-09-03T04:53:23;9.18;;;3.92;;
24713;SDS011;12820;51.580;5.010;2022-09-03T04:58:25;11.25;;;4.43;;
24713;SDS011;12820;51.580;5.010;2022-09-03T05:03:27;10.75;;;4.18;;
24713;SDS011;12820;51.580;5.010;2022-09-03T05:08:29;9.00;;;3.47;;
24713;SDS011;12820;51.580;5.010;2022-09-03T05:13:32;10.55;;;4.00;;
24713;SDS011;12820;51.580;5.010;2022-09-03T05:18:36;8.52;;;3.78;;
24713;SDS011;12820;51.580;5.010;2022-09-03T05:23:39;7.10;;;3.70;;
24713;SDS011;12820;51.580;5.010;2022-09-03T05:28:43;8.38;;;3.70;;
24713;SDS011;12820;51.580;5.010;2022-09-03T05:33:48;10.55;;;3.72;;
24713;SDS011;12820;51.580;5.010;2022-09-03T05:38:51;11.02;;;4.53;;
24713;SDS011;12820;51.580;5.010;2022-09-03T05:43:56;9.02;;;4.30;;
24713;SDS011;12820;51.580;5.010;2022-09-03T05:49:02;9.27;;;4.10;;
24713;SDS011;12820;51.580;5.010;2022-09-03T05:54:06;9.30;;;4.22;;
24713;SDS011;12820;51.580;5.010;2022-09-03T05:59:09;9.98;;;3.92;;
24713;SDS011;12820;51.580;5.010;2022-09-03T06:04:12;10.45;;;4.43;;
24713;SDS011;12820;51.580;5.010;2022-09-03T06:09:16;12.07;;;4.22;;
24713;SDS011;12820;51.580;5.010;2022-09-03T06:14:24;10.07;;;4.47;;
24713;SDS011;12820;51.580;5.010;2022-09-03T06:19:26;10.35;;;4.20;;
24713;SDS011;12820;51.580;5.010;2022-09-03T06:24:28;12.35;;;4.47;;
24713;SDS011;12820;51.580;5.010;2022-09-03T06:29:30;11.52;;;4.38;;
24713;SDS011;12820;51.580;5.010;2022-09-03T06:34:32;10.52;;;4.38;;
24713;SDS011;12820;51.580;5.010;2022-09-03T06:39:34;12.75;;;4.60;;
24713;SDS011;12820;51.580;5.010;2022-09-03T06:44:37;9.95;;;4.40;;
24713;SDS011;12820;51.580;5.010;2022-09-03T06:49:39;9.10;;;4.20;;
24713;SDS011;12820;51.580;5.010;2022-09-03T06:54:41;8.88;;;3.95;;
24713;SDS011;12820;51.580;5.010;2022-09-03T06:59:43;14.50;;;4.68;;
24713;SDS011;12820;51.580;5.010;2022-09-03T07:04:46;11.82;;;4.47;;
24713;SDS011;12820;51.580;5.010;2022-09-03T07:09:49;12.23;;;3.88;;
24713;SDS011;12820;51.580;5.010;2022-09-03T07:14:53;12.20;;;4.80;;
24713;SDS011;12820;51.580;5.010;2022-09-03T07:19:55;10.10;;;4.45;;
24713;SDS011;12820;51.580;5.010;2022-09-03T07:24:57;10.50;;;4.45;;
24713;SDS011;12820;51.580;5.010;2022-09-03T07:29:59;13.35;;;4.07;;
24713;SDS011;12820;51.580;5.010;2022-09-03T07:35:01;10.27;;;4.38;;
24713;SDS011;12820;51.580;5.010;2022-09-03T07:40:04;10.73;;;4.10;;
24713;SDS011;12820;51.580;5.010;2022-09-03T07:45:06;8.98;;;3.75;;
24713;SDS011;12820;51.580;5.010;2022-09-03T07:50:12;8.05;;;3.63;;
24713;SDS011;12820;51.580;5.010;2022-09-03T07:55:14;7.05;;;3.35;;
24713;SDS011;12820;51.580;5.010;2022-09-03T08:00:16;14.63;;;4.80;;
24713;SDS011;12820;51.580;5.010;2022-09-03T08:05:19;8.02;;;3.33;;
24713;SDS011;12820;51.580;5.010;2022-09-03T08:10:22;11.00;;;3.75;;
24713;SDS011;12820;51.580;5.010;2022-09-03T08:15:25;7.45;;;3.60;;
24713;SDS011;12820;51.580;5.010;2022-09-03T08:20:27;8.10;;;3.22;;
24713;SDS011;12820;51.580;5.010;2022-09-03T08:25:31;7.63;;;3.47;;
24713;SDS011;12820;51.580;5.010;2022-09-03T08:30:34;8.77;;;2.97;;
24713;SDS011;12820;51.580;5.010;2022-09-03T08:35:37;5.57;;;2.65;;
24713;SDS011;12820;51.580;5.010;2022-09-03T08:40:40;6.50;;;2.13;;
24713;SDS011;12820;51.580;5.010;2022-09-03T08:45:43;6.82;;;2.10;;
24713;SDS011;12820;51.580;5.010;2022-09-03T08:50:47;8.48;;;2.30;;
24713;SDS011;12820;51.580;5.010;2022-09-03T08:55:59;3.67;;;1.70;;
24713;SDS011;12820;51.580;5.010;2022-09-03T09:01:09;4.72;;;2.00;;
24713;SDS011;12820;51.580;5.010;2022-09-03T09:22:42;2.85;;;1.20;;
24713;SDS011;12820;51.580;5.010;2022-09-03T09:27:53;10.13;;;1.67;;
24713;SDS011;12820;51.580;5.010;2022-09-03T09:33:12;3.92;;;1.40;;
24713;SDS011;12820;51.580;5.010;2022-09-03T09:38:25;3.72;;;1.58;;
24713;SDS011;12820;51.580;5.010;2022-09-03T09:43:31;3.83;;;1.77;;
24713;SDS011;12820;51.580;5.010;2022-09-03T09:48:36;4.25;;;2.00;;
24713;SDS011;12820;51.580;5.010;2022-09-03T09:53:47;3.50;;;1.50;;
24713;SDS011;12820;51.580;5.010;2022-09-03T09:59:00;5.30;;;1.65;;
24713;SDS011;12820;51.580;5.010;2022-09-03T10:04:11;5.68;;;1.52;;
24713;SDS011;12820;51.580;5.010;2022-09-03T10:09:26;6.75;;;1.60;;
24713;SDS011;12820;51.580;5.010;2022-09-03T10:14:36;3.30;;;1.48;;
24713;SDS011;12820;51.580;5.010;2022-09-03T10:25:30;7.05;;;1.88;;
24713;SDS011;12820;51.580;5.010;2022-09-03T10:30:45;4.88;;;1.90;;
24713;SDS011;12820;51.580;5.010;2022-09-03T10:36:17;5.57;;;1.70;;
24713;SDS011;12820;51.580;5.010;2022-09-03T10:41:25;4.88;;;1.90;;
24713;SDS011;12820;51.580;5.010;2022-09-03T10:47:19;4.55;;;1.58;;
24713;SDS011;12820;51.580;5.010;2022-09-03T10:52:23;4.70;;;1.83;;
24713;SDS011;12820;51.580;5.010;2022-09-03T10:57:31;4.70;;;1.63;;
24713;SDS011;12820;51.580;5.010;2022-09-03T11:19:04;3.95;;;1.75;;
24713;SDS011;12820;51.580;5.010;2022-09-03T11:24:16;4.18;;;1.67;;
24713;SDS011;12820;51.580;5.010;2022-09-03T11:29:31;3.88;;;1.35;;
24713;SDS011;12820;51.580;5.010;2022-09-03T11:34:47;5.13;;;1.40;;
24713;SDS011;12820;51.580;5.010;2022-09-03T11:45:19;3.40;;;1.05;;
24713;SDS011;12820;51.580;5.010;2022-09-03T11:50:32;5.05;;;1.45;;
24713;SDS011;12820;51.580;5.010;2022-09-03T12:00:57;2.92;;;1.13;;
24713;SDS011;12820;51.580;5.010;2022-09-03T12:06:05;3.08;;;1.35;;
24713;SDS011;12820;51.580;5.010;2022-09-03T12:17:11;4.57;;;1.55;;
24713;SDS011;12820;51.580;5.010;2022-09-03T12:22:19;3.15;;;1.48;;
24713;SDS011;12820;51.580;5.010;2022-09-03T12:27:25;7.38;;;1.50;;
24713;SDS011;12820;51.580;5.010;2022-09-03T12:32:34;4.18;;;1.45;;
24713;SDS011;12820;51.580;5.010;2022-09-03T12:37:42;3.95;;;1.20;;
24713;SDS011;12820;51.580;5.010;2022-09-03T12:43:13;3.17;;;1.50;;
24713;SDS011;12820;51.580;5.010;2022-09-03T12:48:37;6.22;;;1.65;;
24713;SDS011;12820;51.580;5.010;2022-09-03T12:53:44;2.20;;;1.00;;
24713;SDS011;12820;51.580;5.010;2022-09-03T12:58:49;4.00;;;1.30;;
24713;SDS011;12820;51.580;5.010;2022-09-03T13:04:02;4.10;;;1.15;;
24713;SDS011;12820;51.580;5.010;2022-09-03T13:09:18;5.65;;;1.30;;
24713;SDS011;12820;51.580;5.010;2022-09-03T13:14:26;4.78;;;1.00;;
24713;SDS011;12820;51.580;5.010;2022-09-03T13:19:47;3.20;;;1.10;;
24713;SDS011;12820;51.580;5.010;2022-09-03T13:25:07;2.60;;;1.10;;
24713;SDS011;12820;51.580;5.010;2022-09-03T13:30:19;2.60;;;1.17;;
24713;SDS011;12820;51.580;5.010;2022-09-03T13:35:28;2.95;;;1.00;;
24713;SDS011;12820;51.580;5.010;2022-09-03T13:45:51;2.25;;;0.90;;
24713;SDS011;12820;51.580;5.010;2022-09-03T14:01:39;3.50;;;0.98;;
24713;SDS011;12820;51.580;5.010;2022-09-03T14:06:57;3.60;;;1.05;;
24713;SDS011;12820;51.580;5.010;2022-09-03T14:12:14;2.60;;;1.05;;
24713;SDS011;12820;51.580;5.010;2022-09-03T14:23:50;3.97;;;1.35;;
24713;SDS011;12820;51.580;5.010;2022-09-03T14:29:14;3.05;;;1.10;;
24713;SDS011;12820;51.580;5.010;2022-09-03T14:34:24;3.33;;;1.27;;
24713;SDS011;12820;51.580;5.010;2022-09-03T14:45:03;4.53;;;1.00;;
24713;SDS011;12820;51.580;5.010;2022-09-03T15:01:27;2.58;;;1.30;;
24713;SDS011;12820;51.580;5.010;2022-09-03T15:06:40;2.90;;;1.20;;
24713;SDS011;12820;51.580;5.010;2022-09-03T15:23:10;2.53;;;1.25;;
24713;SDS011;12820;51.580;5.010;2022-09-03T15:28:24;4.65;;;1.40;;
24713;SDS011;12820;51.580;5.010;2022-09-03T15:39:07;3.10;;;1.27;;
24713;SDS011;12820;51.580;5.010;2022-09-03T15:44:14;6.13;;;1.50;;
24713;SDS011;12820;51.580;5.010;2022-09-03T15:49:24;2.83;;;1.35;;
24713;SDS011;12820;51.580;5.010;2022-09-03T15:54:47;4.45;;;1.73;;
24713;SDS011;12820;51.580;5.010;2022-09-03T16:00:09;6.72;;;1.55;;
24713;SDS011;12820;51.580;5.010;2022-09-03T16:10:20;2.83;;;1.27;;
24713;SDS011;12820;51.580;5.010;2022-09-03T16:15:27;3.72;;;1.40;;
24713;SDS011;12820;51.580;5.010;2022-09-03T16:25:46;12.88;;;4.97;;
24713;SDS011;12820;51.580;5.010;2022-09-03T16:30:56;3.25;;;1.70;;
24713;SDS011;12820;51.580;5.010;2022-09-03T16:47:22;4.60;;;1.50;;
24713;SDS011;12820;51.580;5.010;2022-09-03T17:14:38;4.63;;;2.45;;
24713;SDS011;12820;51.580;5.010;2022-09-03T17:19:52;6.82;;;2.30;;
24713;SDS011;12820;51.580;5.010;2022-09-03T17:25:02;3.20;;;2.00;;
24713;SDS011;12820;51.580;5.010;2022-09-03T17:30:15;4.55;;;1.80;;
24713;SDS011;12820;51.580;5.010;2022-09-03T17:40:44;3.85;;;1.90;;
24713;SDS011;12820;51.580;5.010;2022-09-03T17:46:13;3.50;;;1.92;;
24713;SDS011;12820;51.580;5.010;2022-09-03T18:02:02;4.78;;;2.88;;
24713;SDS011;12820;51.580;5.010;2022-09-03T18:07:20;6.30;;;2.28;;
24713;SDS011;12820;51.580;5.010;2022-09-03T18:12:31;5.93;;;2.90;;
24713;SDS011;12820;51.580;5.010;2022-09-03T18:17:48;5.80;;;2.88;;
24713;SDS011;12820;51.580;5.010;2022-09-03T18:23:02;5.60;;;2.53;;
24713;SDS011;12820;51.580;5.010;2022-09-03T18:28:56;5.20;;;2.67;;
24713;SDS011;12820;51.580;5.010;2022-09-03T18:34:24;5.93;;;2.45;;
24713;SDS011;12820;51.580;5.010;2022-09-03T18:39:50;8.70;;;2.60;;
24713;SDS011;12820;51.580;5.010;2022-09-03T18:57:24;4.97;;;2.55;;
24713;SDS011;12820;51.580;5.010;2022-09-03T19:08:23;6.30;;;3.53;;
24713;SDS011;12820;51.580;5.010;2022-09-03T19:13:45;5.10;;;2.97;;
24713;SDS011;12820;51.580;5.010;2022-09-03T19:24:39;6.55;;;3.20;;
24713;SDS011;12820;51.580;5.010;2022-09-03T19:30:05;6.10;;;3.05;;
24713;SDS011;12820;51.580;5.010;2022-09-03T19:35:31;6.35;;;3.38;;
24713;SDS011;12820;51.580;5.010;2022-09-03T19:46:54;6.40;;;3.20;;
24713;SDS011;12820;51.580;5.010;2022-09-03T19:58:01;4.93;;;2.70;;
24713;SDS011;12820;51.580;5.010;2022-09-03T20:03:42;5.70;;;2.70;;
24713;SDS011;12820;51.580;5.010;2022-09-03T20:09:07;6.38;;;2.70;;
24713;SDS011;12820;51.580;5.010;2022-09-03T20:14:29;4.75;;;2.67;;
24713;SDS011;12820;51.580;5.010;2022-09-03T20:56:58;7.95;;;2.95;;
24713;SDS011;12820;51.580;5.010;2022-09-03T21:07:46;6.68;;;2.70;;
24713;SDS011;12820;51.580;5.010;2022-09-03T21:13:17;7.50;;;2.80;;
24713;SDS011;12820;51.580;5.010;2022-09-03T21:24:21;10.15;;;3.54;;
24713;SDS011;12820;51.580;5.010;2022-09-03T21:29:37;7.85;;;4.10;;
24713;SDS011;12820;51.580;5.010;2022-09-03T21:40:16;6.50;;;3.22;;
24713;SDS011;12820;51.580;5.010;2022-09-03T21:45:28;6.07;;;2.83;;
24713;SDS011;12820;51.580;5.010;2022-09-03T22:01:04;8.40;;;3.30;;
24713;SDS011;12820;51.580;5.010;2022-09-03T22:06:15;4.78;;;2.92;;
24713;SDS011;12820;51.580;5.010;2022-09-03T22:11:28;5.75;;;2.83;;
24713;SDS011;12820;51.580;5.010;2022-09-03T22:16:37;5.80;;;3.03;;
24713;SDS011;12820;51.580;5.010;2022-09-03T22:22:20;9.50;;;3.78;;
24713;SDS011;12820;51.580;5.010;2022-09-03T22:27:35;5.85;;;3.72;;
24713;SDS011;12820;51.580;5.010;2022-09-03T22:38:18;8.73;;;5.38;;
24713;SDS011;12820;51.580;5.010;2022-09-03T23:09:40;8.93;;;3.83;;
24713;SDS011;12820;51.580;5.010;2022-09-03T23:14:46;6.93;;;3.90;;
24713;SDS011;12820;51.580;5.010;2022-09-03T23:20:05;9.18;;;4.55;;
24713;SDS011;12820;51.580;5.010;2022-09-03T23:25:43;10.35;;;4.50;;
24713;SDS011;12820;51.580;5.010;2022-09-03T23:30:38;10.35;;;5.50;;
24713;SDS011;12820;51.580;5.010;2022-09-03T23:35:47;9.73;;;5.45;;
24713;SDS011;12820;51.580;5.010;2022-09-03T23:40:57;11.98;;;5.35;;
24713;SDS011;12820;51.580;5.010;2022-09-03T23:46:11;7.43;;;4.65;;
24713;SDS011;12820;51.580;5.010;2022-09-03T23:51:26;8.60;;;5.50;;
